Time,TemperatureF,DewpointF,PressureIn,WindDirection,WindDirectionDegrees,WindSpeedMPH,WindSpeedGustMPH,Humidity,HourlyPrecipIn,Conditions,Clouds,dailyrainin,SoftwareType,DateUTC
2013-08-30 00:02:00,60.6,58.3,30.07,SW,221,6.0,9.0,92,0.00,,,0.02,meteohub,2013-08-29 23:02:00,
2013-08-30 00:07:00,60.6,58.3,30.07,SSW,206,1.0,14.0,92,0.00,,,0.00,meteohub,2013-08-29 23:07:00,
2013-08-30 00:12:00,60.8,58.5,30.07,WSW,248,6.0,14.0,92,0.00,,,0.00,meteohub,2013-08-29 23:12:00,
2013-08-30 00:17:00,60.8,58.5,30.07,SW,216,4.0,14.0,92,0.00,,,0.00,meteohub,2013-08-29 23:17:00,
2013-08-30 00:22:00,60.6,58.3,30.07,SSW,209,5.0,9.0,92,0.00,,,0.00,meteohub,2013-08-29 23:22:00,
2013-08-30 00:27:00,60.6,58.6,30.06,SSW,194,8.0,10.0,93,0.00,,,0.00,meteohub,2013-08-29 23:27:00,
2013-08-30 00:32:00,60.6,58.6,30.06,South,184,1.0,10.0,93,0.00,,,0.00,meteohub,2013-08-29 23:32:00,
2013-08-30 00:37:00,60.8,58.8,30.06,WSW,248,0.0,10.0,93,0.00,,,0.00,meteohub,2013-08-29 23:37:00,
2013-08-30 00:42:00,61.0,59.0,30.06,SSW,197,4.0,9.0,93,0.00,,,0.00,meteohub,2013-08-29 23:42:00,
2013-08-30 00:47:00,60.8,58.8,30.06,SW,217,5.0,10.0,93,0.00,,,0.00,meteohub,2013-08-29 23:47:00,
2013-08-30 00:52:00,60.6,58.6,30.06,South,190,5.0,10.0,93,0.00,,,0.00,meteohub,2013-08-29 23:52:00,
2013-08-30 00:57:00,60.4,58.5,30.06,South,190,2.0,13.0,93,0.00,,,0.00,meteohub,2013-08-29 23:57:00,
2013-08-30 01:02:00,60.4,58.5,30.06,SW,220,2.0,13.0,93,0.00,,,0.00,meteohub,2013-08-30 00:02:00,
2013-08-30 01:07:00,60.3,58.3,30.06,SSW,208,0.0,11.0,93,0.00,,,0.00,meteohub,2013-08-30 00:07:00,
2013-08-30 01:12:00,60.3,58.3,30.05,SSW,200,1.0,11.0,93,0.00,,,0.00,meteohub,2013-08-30 00:12:00,
2013-08-30 01:17:00,60.3,58.3,30.05,SW,234,5.0,10.0,93,0.00,,,0.00,meteohub,2013-08-30 00:17:00,
2013-08-30 01:22:00,60.3,58.3,30.05,WSW,238,2.0,10.0,93,0.00,,,0.00,meteohub,2013-08-30 00:22:00,
2013-08-30 01:27:00,60.3,58.3,30.05,SW,220,5.0,10.0,93,0.00,,,0.00,meteohub,2013-08-30 00:27:00,
2013-08-30 01:32:00,60.3,58.3,30.05,SW,222,2.0,10.0,93,0.00,,,0.00,meteohub,2013-08-30 00:32:00,
2013-08-30 01:37:00,60.3,58.3,30.05,SSW,200,8.0,10.0,93,0.00,,,0.00,meteohub,2013-08-30 00:37:00,
2013-08-30 01:42:00,60.3,58.3,30.05,West,261,5.0,10.0,93,0.00,,,0.00,meteohub,2013-08-30 00:42:00,
2013-08-30 01:47:00,60.4,58.5,30.05,SSE,167,4.0,10.0,93,0.00,,,0.00,meteohub,2013-08-30 00:47:00,
2013-08-30 01:52:00,60.4,58.5,30.04,SSW,200,4.0,10.0,93,0.00,,,0.00,meteohub,2013-08-30 00:52:00,
2013-08-30 01:57:00,60.4,58.5,30.04,South,178,9.0,10.0,93,0.00,,,0.00,meteohub,2013-08-30 00:57:00,
2013-08-30 02:02:00,60.4,58.6,30.04,SW,228,2.0,10.0,94,0.00,,,0.00,meteohub,2013-08-30 01:02:00,
2013-08-30 02:07:00,60.4,58.6,30.04,SW,221,4.0,10.0,94,0.00,,,0.00,meteohub,2013-08-30 01:07:00,
2013-08-30 02:12:00,60.6,58.8,30.04,South,171,5.0,11.0,94,0.00,,,0.00,meteohub,2013-08-30 01:12:00,
2013-08-30 02:17:00,60.6,58.8,30.04,SE,146,6.0,11.0,94,0.00,,,0.00,meteohub,2013-08-30 01:17:00,
2013-08-30 02:22:00,60.6,58.8,30.04,South,190,2.0,10.0,94,0.00,,,0.00,meteohub,2013-08-30 01:22:00,
2013-08-30 02:27:00,60.6,58.6,30.04,SSW,197,8.0,10.0,93,0.00,,,0.00,meteohub,2013-08-30 01:27:00,
2013-08-30 02:32:00,60.6,58.6,30.03,SSE,160,5.0,10.0,93,0.00,,,0.00,meteohub,2013-08-30 01:32:00,
2013-08-30 02:37:00,60.6,58.6,30.04,WSW,241,9.0,11.0,93,0.00,,,0.00,meteohub,2013-08-30 01:37:00,
2013-08-30 02:42:00,60.6,58.6,30.03,South,183,5.0,11.0,93,0.00,,,0.00,meteohub,2013-08-30 01:42:00,
2013-08-30 02:47:00,60.6,58.6,30.03,SW,215,6.0,14.0,93,0.00,,,0.00,meteohub,2013-08-30 01:47:00,
2013-08-30 02:52:00,60.6,58.6,30.03,SW,220,4.0,14.0,93,0.00,,,0.00,meteohub,2013-08-30 01:52:00,
2013-08-30 02:57:00,60.6,58.8,30.03,South,186,5.0,14.0,94,0.00,,,0.00,meteohub,2013-08-30 01:57:00,
2013-08-30 03:02:00,60.6,58.8,30.03,SW,224,0.0,9.0,94,0.00,,,0.00,meteohub,2013-08-30 02:02:00,
2013-08-30 03:12:00,60.6,58.8,30.03,SSW,196,5.0,9.0,94,0.00,,,0.00,meteohub,2013-08-30 02:12:00,
2013-08-30 03:17:00,60.6,58.8,30.02,SSW,192,4.0,9.0,94,0.00,,,0.00,meteohub,2013-08-30 02:17:00,
2013-08-30 03:22:00,60.6,58.8,30.03,South,186,5.0,10.0,94,0.00,,,0.00,meteohub,2013-08-30 02:22:00,
2013-08-30 03:27:00,60.6,58.8,30.02,West,264,2.0,10.0,94,0.00,,,0.00,meteohub,2013-08-30 02:27:00,
2013-08-30 03:32:00,60.6,58.8,30.02,SSW,193,5.0,10.0,94,0.00,,,0.00,meteohub,2013-08-30 02:32:00,
2013-08-30 03:37:00,60.6,58.8,30.02,SSW,205,0.0,8.0,94,0.00,,,0.00,meteohub,2013-08-30 02:37:00,
2013-08-30 03:42:00,60.6,58.8,30.02,SSW,196,2.0,8.0,94,0.00,,,0.00,meteohub,2013-08-30 02:42:00,
2013-08-30 03:47:00,60.4,58.6,30.02,SSW,203,6.0,9.0,94,0.00,,,0.00,meteohub,2013-08-30 02:47:00,
2013-08-30 03:52:00,60.4,58.6,30.02,South,173,2.0,9.0,94,0.00,,,0.00,meteohub,2013-08-30 02:52:00,
2013-08-30 03:57:00,60.4,58.6,30.01,SSW,211,4.0,9.0,94,0.00,,,0.00,meteohub,2013-08-30 02:57:00,
2013-08-30 04:02:00,60.8,59.0,30.01,WSW,237,1.0,9.0,94,0.00,,,0.00,meteohub,2013-08-30 03:02:00,
2013-08-30 04:07:00,61.0,59.2,30.01,SW,233,10.0,11.0,94,0.00,,,0.00,meteohub,2013-08-30 03:07:00,
2013-08-30 04:12:00,61.2,59.4,30.01,SSW,213,5.0,14.0,94,0.00,,,0.00,meteohub,2013-08-30 03:12:00,
2013-08-30 04:17:00,61.2,59.4,30.01,SW,232,0.0,14.0,94,0.00,,,0.00,meteohub,2013-08-30 03:17:00,
2013-08-30 04:22:00,61.3,59.5,30.00,South,183,2.0,13.0,94,0.00,,,0.00,meteohub,2013-08-30 03:22:00,
2013-08-30 04:27:00,61.3,59.5,30.00,SSW,192,6.0,10.0,94,0.00,,,0.00,meteohub,2013-08-30 03:27:00,
2013-08-30 04:32:00,61.3,59.5,30.00,West,271,1.0,10.0,94,0.00,,,0.00,meteohub,2013-08-30 03:32:00,
2013-08-30 04:37:00,61.5,59.7,30.00,SSW,211,8.0,11.0,94,0.00,,,0.00,meteohub,2013-08-30 03:37:00,
2013-08-30 04:42:00,61.5,59.7,30.00,South,188,6.0,11.0,94,0.00,,,0.00,meteohub,2013-08-30 03:42:00,
2013-08-30 04:47:00,61.7,60.3,29.99,West,265,8.0,14.0,95,0.00,,,0.00,meteohub,2013-08-30 03:47:00,
2013-08-30 04:52:00,61.9,60.1,29.99,SSW,202,5.0,14.0,94,0.01,,,0.00,meteohub,2013-08-30 03:52:00,
2013-08-30 04:57:00,61.9,60.1,29.99,South,185,2.0,14.0,94,0.01,,,0.01,meteohub,2013-08-30 03:57:00,
2013-08-30 05:02:00,61.9,60.4,29.99,South,182,2.0,14.0,95,0.01,,,0.01,meteohub,2013-08-30 04:02:00,
2013-08-30 05:07:00,62.1,60.6,29.99,WSW,241,1.0,11.0,95,0.01,,,0.01,meteohub,2013-08-30 04:07:00,
2013-08-30 05:12:00,62.1,60.6,29.99,WNW,300,4.0,9.0,95,0.01,,,0.01,meteohub,2013-08-30 04:12:00,
2013-08-30 05:17:00,62.1,60.6,29.99,South,189,8.0,13.0,95,0.01,,,0.01,meteohub,2013-08-30 04:17:00,
2013-08-30 05:22:00,62.1,60.6,29.99,South,170,2.0,13.0,95,0.01,,,0.01,meteohub,2013-08-30 04:22:00,
2013-08-30 05:27:00,62.1,60.6,29.99,South,180,9.0,10.0,95,0.01,,,0.01,meteohub,2013-08-30 04:27:00,
2013-08-30 05:32:00,62.1,60.6,29.98,SE,133,1.0,10.0,95,0.01,,,0.01,meteohub,2013-08-30 04:32:00,
2013-08-30 05:37:00,62.1,60.6,29.98,North,0,1.0,11.0,95,0.01,,,0.01,meteohub,2013-08-30 04:37:00,
2013-08-30 05:42:00,62.1,60.6,29.98,SW,221,2.0,11.0,95,0.01,,,0.01,meteohub,2013-08-30 04:42:00,
2013-08-30 05:47:00,62.1,60.6,29.98,West,265,2.0,11.0,95,0.01,,,0.01,meteohub,2013-08-30 04:47:00,
2013-08-30 05:52:00,62.1,60.6,29.98,South,174,2.0,10.0,95,0.00,,,0.01,meteohub,2013-08-30 04:52:00,
2013-08-30 05:57:00,61.9,60.1,29.98,South,183,8.0,11.0,94,0.00,,,0.01,meteohub,2013-08-30 04:57:00,
2013-08-30 06:02:00,61.9,60.1,29.97,SSW,203,1.0,13.0,94,0.00,,,0.01,meteohub,2013-08-30 05:02:00,
2013-08-30 06:07:00,61.9,60.1,29.97,South,186,2.0,14.0,94,0.00,,,0.01,meteohub,2013-08-30 05:07:00,
2013-08-30 06:12:00,61.9,60.1,29.97,SW,215,11.0,14.0,94,0.00,,,0.01,meteohub,2013-08-30 05:12:00,
2013-08-30 06:17:00,61.9,60.1,29.97,SSW,200,11.0,13.0,94,0.00,,,0.01,meteohub,2013-08-30 05:17:00,
2013-08-30 06:27:00,61.9,60.1,29.97,SE,134,8.0,16.0,94,0.00,,,0.01,meteohub,2013-08-30 05:27:00,
2013-08-30 06:32:00,62.1,60.3,29.97,South,186,9.0,16.0,94,0.00,,,0.01,meteohub,2013-08-30 05:32:00,
2013-08-30 06:37:00,62.1,60.3,29.97,SSW,198,11.0,16.0,94,0.00,,,0.01,meteohub,2013-08-30 05:37:00,
2013-08-30 06:42:00,62.1,60.3,29.97,WSW,242,14.0,16.0,94,0.00,,,0.01,meteohub,2013-08-30 05:42:00,
2013-08-30 06:47:00,62.1,60.6,29.96,SSW,209,5.0,16.0,95,0.00,,,0.01,meteohub,2013-08-30 05:47:00,
2013-08-30 06:52:00,62.1,60.6,29.97,SW,215,4.0,16.0,95,0.00,,,0.01,meteohub,2013-08-30 05:52:00,
2013-08-30 06:57:00,62.1,60.6,29.96,SSE,150,10.0,14.0,95,0.00,,,0.01,meteohub,2013-08-30 05:57:00,
2013-08-30 07:02:00,62.1,60.6,29.96,South,186,2.0,13.0,95,0.00,,,0.01,meteohub,2013-08-30 06:02:00,
2013-08-30 07:07:00,62.1,60.6,29.97,SSW,211,8.0,13.0,95,0.00,,,0.01,meteohub,2013-08-30 06:07:00,
2013-08-30 07:12:00,62.2,60.8,29.97,South,175,9.0,18.0,95,0.00,,,0.01,meteohub,2013-08-30 06:12:00,
2013-08-30 07:17:00,62.2,60.8,29.96,SE,138,5.0,18.0,95,0.00,,,0.01,meteohub,2013-08-30 06:17:00,
2013-08-30 07:22:00,62.4,61.0,29.96,SSE,167,5.0,18.0,95,0.00,,,0.01,meteohub,2013-08-30 06:22:00,
2013-08-30 07:27:00,62.4,61.0,29.96,SE,144,1.0,18.0,95,0.00,,,0.01,meteohub,2013-08-30 06:27:00,
2013-08-30 07:32:00,62.6,61.2,29.96,SSW,202,4.0,18.0,95,0.00,,,0.01,meteohub,2013-08-30 06:32:00,
2013-08-30 07:37:00,62.8,61.3,29.96,WSW,240,4.0,15.0,95,0.00,,,0.01,meteohub,2013-08-30 06:37:00,
2013-08-30 07:42:00,63.0,61.5,29.96,SSW,205,2.0,15.0,95,0.00,,,0.01,meteohub,2013-08-30 06:42:00,
2013-08-30 07:47:00,63.0,61.5,29.96,WSW,243,1.0,15.0,95,0.00,,,0.01,meteohub,2013-08-30 06:47:00,
2013-08-30 07:52:00,62.8,61.3,29.96,SSW,198,0.0,13.0,95,0.01,,,0.01,meteohub,2013-08-30 06:52:00,
2013-08-30 07:57:00,63.0,61.5,29.96,South,188,2.0,13.0,95,0.01,,,0.02,meteohub,2013-08-30 06:57:00,
2013-08-30 08:02:00,63.0,61.5,29.96,SW,236,8.0,13.0,95,0.01,,,0.02,meteohub,2013-08-30 07:02:00,
2013-08-30 08:07:00,63.0,61.5,29.96,West,271,5.0,13.0,95,0.01,,,0.02,meteohub,2013-08-30 07:07:00,
2013-08-30 08:12:00,63.0,61.5,29.97,West,277,9.0,14.0,95,0.01,,,0.02,meteohub,2013-08-30 07:12:00,
2013-08-30 08:17:00,62.4,61.0,29.97,WNW,291,5.0,16.0,95,0.01,,,0.02,meteohub,2013-08-30 07:17:00,
2013-08-30 08:22:00,62.4,61.0,29.96,North,355,5.0,16.0,95,0.01,,,0.02,meteohub,2013-08-30 07:22:00,
2013-08-30 08:27:00,62.2,60.8,29.96,SW,230,4.0,16.0,95,0.01,,,0.02,meteohub,2013-08-30 07:27:00,
2013-08-30 08:32:00,62.4,61.0,29.96,SW,230,1.0,14.0,95,0.01,,,0.02,meteohub,2013-08-30 07:32:00,
2013-08-30 08:37:00,62.8,61.3,29.96,ESE,117,4.0,14.0,95,0.01,,,0.02,meteohub,2013-08-30 07:37:00,
2013-08-30 08:42:00,62.8,61.3,29.96,South,182,5.0,15.0,95,0.01,,,0.02,meteohub,2013-08-30 07:42:00,
2013-08-30 08:47:00,62.8,61.3,29.96,WSW,250,11.0,16.0,95,0.01,,,0.02,meteohub,2013-08-30 07:47:00,
2013-08-30 08:52:00,62.8,61.3,29.96,SW,226,4.0,16.0,95,0.00,,,0.02,meteohub,2013-08-30 07:52:00,
2013-08-30 08:57:00,62.8,61.3,29.96,WNW,284,0.0,13.0,95,0.00,,,0.02,meteohub,2013-08-30 07:57:00,
2013-08-30 09:02:00,63.1,61.7,29.96,West,265,6.0,13.0,95,0.00,,,0.02,meteohub,2013-08-30 08:02:00,
2013-08-30 09:07:00,63.3,61.5,29.96,SW,227,9.0,13.0,94,0.00,,,0.02,meteohub,2013-08-30 08:07:00,
2013-08-30 09:12:00,63.9,62.1,29.96,NW,316,2.0,14.0,94,0.00,,,0.02,meteohub,2013-08-30 08:12:00,
2013-08-30 09:17:00,64.0,62.1,29.96,West,268,8.0,14.0,93,0.00,,,0.02,meteohub,2013-08-30 08:17:00,
2013-08-30 09:22:00,64.0,62.1,29.96,NNW,342,6.0,14.0,93,0.00,,,0.02,meteohub,2013-08-30 08:22:00,
2013-08-30 09:27:00,63.0,60.6,29.96,WNW,289,8.0,18.0,92,0.01,,,0.02,meteohub,2013-08-30 08:27:00,
2013-08-30 09:32:00,62.4,60.4,29.97,West,277,9.0,18.0,93,0.02,,,0.02,meteohub,2013-08-30 08:32:00,
2013-08-30 09:37:00,62.4,60.4,29.97,WSW,240,1.0,18.0,93,0.02,,,0.03,meteohub,2013-08-30 08:37:00,
2013-08-30 09:42:00,62.4,60.6,29.97,WNW,289,6.0,15.0,94,0.02,,,0.03,meteohub,2013-08-30 08:42:00,
2013-08-30 09:47:00,62.2,60.4,29.97,NNW,335,6.0,15.0,94,0.02,,,0.03,meteohub,2013-08-30 08:47:00,
2013-08-30 09:52:00,61.7,59.9,29.97,NW,306,6.0,19.0,94,0.02,,,0.04,meteohub,2013-08-30 08:52:00,
2013-08-30 09:57:00,61.7,59.9,29.98,WNW,288,10.0,19.0,94,0.02,,,0.04,meteohub,2013-08-30 08:57:00,
2013-08-30 10:02:00,61.9,60.1,29.98,WNW,289,2.0,19.0,94,0.02,,,0.04,meteohub,2013-08-30 09:02:00,
2013-08-30 10:07:00,62.1,60.3,29.98,NW,317,2.0,16.0,94,0.02,,,0.04,meteohub,2013-08-30 09:07:00,
2013-08-30 10:12:00,62.1,60.3,29.98,WNW,293,11.0,16.0,94,0.02,,,0.04,meteohub,2013-08-30 09:12:00,
2013-08-30 10:17:00,62.1,60.1,29.98,WSW,252,6.0,14.0,93,0.02,,,0.04,meteohub,2013-08-30 09:17:00,
2013-08-30 10:22:00,61.9,59.9,29.99,WSW,248,2.0,14.0,93,0.02,,,0.04,meteohub,2013-08-30 09:22:00,
2013-08-30 10:27:00,62.1,60.1,29.99,NW,319,5.0,14.0,93,0.02,,,0.04,meteohub,2013-08-30 09:27:00,
2013-08-30 10:32:00,61.9,59.9,29.99,South,173,2.0,14.0,93,0.01,,,0.04,meteohub,2013-08-30 09:32:00,
2013-08-30 10:37:00,61.9,59.9,29.99,WNW,291,1.0,11.0,93,0.01,,,0.04,meteohub,2013-08-30 09:37:00,
2013-08-30 10:42:00,61.9,59.9,29.99,SSW,213,5.0,10.0,93,0.01,,,0.04,meteohub,2013-08-30 09:42:00,
2013-08-30 10:47:00,61.9,59.9,29.99,NE,50,1.0,11.0,93,0.00,,,0.04,meteohub,2013-08-30 09:47:00,
2013-08-30 10:52:00,61.7,59.7,29.99,WSW,257,5.0,11.0,93,0.00,,,0.04,meteohub,2013-08-30 09:52:00,
2013-08-30 10:57:00,61.2,59.2,29.99,NW,310,2.0,14.0,93,0.00,,,0.04,meteohub,2013-08-30 09:57:00,
2013-08-30 11:02:00,60.8,58.8,29.99,West,277,8.0,14.0,93,0.00,,,0.04,meteohub,2013-08-30 10:02:00,
2013-08-30 11:07:00,61.0,59.0,29.99,NW,317,4.0,16.0,93,0.00,,,0.04,meteohub,2013-08-30 10:07:00,
2013-08-30 11:12:00,61.0,59.2,29.99,West,271,2.0,16.0,94,0.00,,,0.04,meteohub,2013-08-30 10:12:00,
2013-08-30 11:17:00,61.2,59.4,29.99,SW,218,4.0,18.0,94,0.00,,,0.04,meteohub,2013-08-30 10:17:00,
2013-08-30 11:22:00,61.2,59.4,29.99,WNW,293,11.0,18.0,94,0.00,,,0.04,meteohub,2013-08-30 10:22:00,
2013-08-30 11:27:00,61.2,59.2,29.99,WNW,292,5.0,18.0,93,0.00,,,0.04,meteohub,2013-08-30 10:27:00,
2013-08-30 11:32:00,61.3,59.4,29.99,NW,311,6.0,15.0,93,0.00,,,0.04,meteohub,2013-08-30 10:32:00,
2013-08-30 11:37:00,61.9,59.9,29.99,NNW,331,6.0,15.0,93,0.00,,,0.04,meteohub,2013-08-30 10:37:00,
2013-08-30 11:42:00,62.4,60.4,29.99,NNW,340,6.0,15.0,93,0.00,,,0.04,meteohub,2013-08-30 10:42:00,
2013-08-30 11:47:00,62.8,60.4,29.99,NW,311,13.0,15.0,92,0.00,,,0.04,meteohub,2013-08-30 10:47:00,
2013-08-30 11:52:00,62.4,59.7,29.99,West,274,15.0,20.0,91,0.00,,,0.04,meteohub,2013-08-30 10:52:00,
2013-08-30 11:57:00,63.0,60.6,29.99,WNW,300,4.0,20.0,92,0.00,,,0.04,meteohub,2013-08-30 10:57:00,
2013-08-30 12:02:00,63.3,60.6,29.99,West,267,8.0,20.0,91,0.00,,,0.04,meteohub,2013-08-30 11:02:00,
2013-08-30 12:07:00,63.0,59.9,29.99,West,281,10.0,19.0,90,0.00,,,0.04,meteohub,2013-08-30 11:07:00,
2013-08-30 12:12:00,63.1,60.4,29.99,WNW,300,4.0,19.0,91,0.00,,,0.04,meteohub,2013-08-30 11:12:00,
2013-08-30 12:17:00,63.3,60.6,30.00,NW,326,8.0,18.0,91,0.00,,,0.04,meteohub,2013-08-30 11:17:00,
2013-08-30 12:22:00,64.0,61.0,30.00,WSW,252,5.0,20.0,90,0.00,,,0.04,meteohub,2013-08-30 11:22:00,
2013-08-30 12:27:00,63.5,59.9,30.00,WNW,301,14.0,20.0,88,0.00,,,0.04,meteohub,2013-08-30 11:27:00,
2013-08-30 12:32:00,62.6,59.0,30.00,NW,310,11.0,21.0,88,0.00,,,0.04,meteohub,2013-08-30 11:32:00,
2013-08-30 12:37:00,63.3,60.1,30.00,NW,320,6.0,21.0,89,0.00,,,0.04,meteohub,2013-08-30 11:37:00,
2013-08-30 12:42:00,64.2,60.6,30.00,NW,311,5.0,21.0,88,0.00,,,0.04,meteohub,2013-08-30 11:42:00,
2013-08-30 12:47:00,63.9,59.9,30.01,WNW,291,6.0,18.0,87,0.00,,,0.04,meteohub,2013-08-30 11:47:00,
2013-08-30 12:52:00,63.7,60.1,30.01,SW,221,2.0,18.0,88,0.00,,,0.04,meteohub,2013-08-30 11:52:00,
2013-08-30 12:57:00,63.7,59.7,30.01,NW,304,10.0,18.0,87,0.00,,,0.04,meteohub,2013-08-30 11:57:00,
2013-08-30 13:02:00,63.7,59.4,30.00,West,269,9.0,15.0,86,0.00,,,0.04,meteohub,2013-08-30 12:02:00,
2013-08-30 13:07:00,64.6,60.3,30.01,WNW,297,5.0,19.0,86,0.00,,,0.04,meteohub,2013-08-30 12:07:00,
2013-08-30 13:12:00,65.1,60.1,30.01,West,269,5.0,19.0,84,0.00,,,0.04,meteohub,2013-08-30 12:12:00,
2013-08-30 13:17:00,65.7,60.1,30.01,WNW,294,6.0,22.0,82,0.00,,,0.04,meteohub,2013-08-30 12:17:00,
2013-08-30 13:22:00,65.7,59.7,30.01,WNW,284,8.0,22.0,81,0.00,,,0.04,meteohub,2013-08-30 12:22:00,
2013-08-30 13:27:00,65.5,59.5,30.01,NW,320,5.0,20.0,81,0.00,,,0.04,meteohub,2013-08-30 12:27:00,
2013-08-30 13:32:00,64.8,59.5,30.02,SE,141,8.0,20.0,83,0.00,,,0.04,meteohub,2013-08-30 12:32:00,
2013-08-30 13:37:00,64.9,59.7,30.02,WNW,288,13.0,19.0,83,0.00,,,0.04,meteohub,2013-08-30 12:37:00,
2013-08-30 13:42:00,64.9,59.4,30.02,West,272,6.0,21.0,82,0.00,,,0.04,meteohub,2013-08-30 12:42:00,
2013-08-30 13:47:00,65.1,59.2,30.02,West,270,4.0,21.0,81,0.00,,,0.04,meteohub,2013-08-30 12:47:00,
2013-08-30 13:52:00,65.7,59.4,30.02,WNW,300,6.0,16.0,80,0.00,,,0.04,meteohub,2013-08-30 12:52:00,
2013-08-30 13:57:00,65.8,59.2,30.03,NNW,337,9.0,16.0,79,0.00,,,0.04,meteohub,2013-08-30 12:57:00,
2013-08-30 14:02:00,65.5,58.8,30.03,WSW,247,2.0,16.0,79,0.00,,,0.04,meteohub,2013-08-30 13:02:00,
2013-08-30 14:07:00,65.3,59.4,30.04,North,355,6.0,16.0,81,0.00,,,0.04,meteohub,2013-08-30 13:07:00,
2013-08-30 14:12:00,64.9,59.0,30.04,NW,310,9.0,16.0,81,0.00,,,0.04,meteohub,2013-08-30 13:12:00,
2013-08-30 14:17:00,64.6,59.0,30.04,West,266,11.0,14.0,82,0.00,,,0.04,meteohub,2013-08-30 13:17:00,
2013-08-30 14:22:00,64.8,59.2,30.03,NW,309,8.0,14.0,82,0.00,,,0.04,meteohub,2013-08-30 13:22:00,
2013-08-30 14:27:00,64.9,59.4,30.04,NNW,335,8.0,15.0,82,0.00,,,0.04,meteohub,2013-08-30 13:27:00,
2013-08-30 14:32:00,64.8,58.5,30.04,NNW,327,5.0,15.0,80,0.00,,,0.04,meteohub,2013-08-30 13:32:00,
2013-08-30 14:37:00,64.9,59.0,30.04,NW,323,13.0,16.0,81,0.00,,,0.04,meteohub,2013-08-30 13:37:00,
2013-08-30 14:42:00,64.6,58.6,30.04,West,259,14.0,16.0,81,0.00,,,0.04,meteohub,2013-08-30 13:42:00,
2013-08-30 14:47:00,64.2,58.6,30.04,NNW,342,8.0,16.0,82,0.00,,,0.04,meteohub,2013-08-30 13:47:00,
2013-08-30 14:52:00,64.0,58.5,30.05,South,179,6.0,15.0,82,0.00,,,0.04,meteohub,2013-08-30 13:52:00,
2013-08-30 14:57:00,63.9,58.3,30.05,WSW,256,9.0,15.0,82,0.00,,,0.04,meteohub,2013-08-30 13:57:00,
2013-08-30 15:02:00,63.7,58.5,30.05,NW,310,6.0,15.0,83,0.00,,,0.04,meteohub,2013-08-30 14:02:00,
2013-08-30 15:07:00,63.3,58.5,30.06,NW,305,5.0,14.0,84,0.00,,,0.04,meteohub,2013-08-30 14:07:00,
2013-08-30 15:12:00,63.1,58.6,30.06,NNW,331,10.0,14.0,85,0.00,,,0.04,meteohub,2013-08-30 14:12:00,
2013-08-30 15:17:00,62.6,58.3,30.06,NW,309,10.0,14.0,86,0.00,,,0.04,meteohub,2013-08-30 14:17:00,
2013-08-30 15:22:00,62.1,58.5,30.06,WNW,302,4.0,14.0,88,0.01,,,0.05,meteohub,2013-08-30 14:22:00,
2013-08-30 15:27:00,61.9,58.6,30.06,WNW,286,6.0,13.0,89,0.01,,,0.05,meteohub,2013-08-30 14:27:00,
2013-08-30 15:32:00,61.7,58.8,30.06,WNW,296,4.0,13.0,90,0.01,,,0.05,meteohub,2013-08-30 14:32:00,
2013-08-30 15:37:00,61.5,58.6,30.06,WNW,282,4.0,18.0,90,0.01,,,0.05,meteohub,2013-08-30 14:37:00,
2013-08-30 15:42:00,61.5,58.6,30.06,West,275,11.0,18.0,90,0.01,,,0.05,meteohub,2013-08-30 14:42:00,
2013-08-30 15:47:00,61.9,59.0,30.06,WNW,297,8.0,18.0,90,0.01,,,0.05,meteohub,2013-08-30 14:47:00,
2013-08-30 15:52:00,61.9,59.0,30.06,NW,306,6.0,14.0,90,0.01,,,0.05,meteohub,2013-08-30 14:52:00,
2013-08-30 15:57:00,62.1,59.4,30.06,WNW,290,9.0,16.0,91,0.01,,,0.05,meteohub,2013-08-30 14:57:00,
2013-08-30 16:02:00,62.1,59.4,30.06,NNW,335,9.0,16.0,91,0.01,,,0.05,meteohub,2013-08-30 15:02:00,
2013-08-30 16:07:00,62.1,59.4,30.06,North,350,5.0,14.0,91,0.01,,,0.05,meteohub,2013-08-30 15:07:00,
2013-08-30 16:12:00,61.9,59.2,30.06,WNW,293,13.0,14.0,91,0.01,,,0.05,meteohub,2013-08-30 15:12:00,
2013-08-30 16:17:00,61.9,59.5,30.06,SSW,212,5.0,14.0,92,0.01,,,0.05,meteohub,2013-08-30 15:17:00,
2013-08-30 16:22:00,62.1,59.7,30.06,WNW,298,8.0,14.0,92,0.00,,,0.05,meteohub,2013-08-30 15:22:00,
2013-08-30 16:27:00,62.1,59.7,30.06,NNW,329,8.0,13.0,92,0.00,,,0.05,meteohub,2013-08-30 15:27:00,
2013-08-30 16:32:00,62.2,59.5,30.06,WNW,300,14.0,14.0,91,0.00,,,0.05,meteohub,2013-08-30 15:32:00,
2013-08-30 16:37:00,62.6,59.5,30.06,WNW,292,9.0,20.0,90,0.00,,,0.05,meteohub,2013-08-30 15:37:00,
2013-08-30 16:42:00,62.8,59.2,30.07,West,274,9.0,20.0,88,0.00,,,0.05,meteohub,2013-08-30 15:42:00,
2013-08-30 16:47:00,62.8,58.5,30.07,WNW,300,9.0,20.0,86,0.00,,,0.05,meteohub,2013-08-30 15:47:00,
2013-08-30 16:52:00,63.5,58.6,30.08,NW,309,13.0,20.0,84,0.00,,,0.05,meteohub,2013-08-30 15:52:00,
2013-08-30 16:57:00,63.9,58.3,30.08,West,267,8.0,22.0,82,0.00,,,0.05,meteohub,2013-08-30 15:57:00,
2013-08-30 17:02:00,63.7,57.4,30.08,NW,309,14.0,22.0,80,0.00,,,0.05,meteohub,2013-08-30 16:02:00,
2013-08-30 17:07:00,63.3,57.4,30.08,WNW,283,11.0,22.0,81,0.00,,,0.05,meteohub,2013-08-30 16:07:00,
2013-08-30 17:12:00,63.3,56.7,30.09,NW,316,11.0,21.0,79,0.00,,,0.05,meteohub,2013-08-30 16:12:00,
2013-08-30 17:17:00,63.3,56.7,30.09,WNW,287,9.0,20.0,79,0.00,,,0.05,meteohub,2013-08-30 16:17:00,
2013-08-30 17:22:00,63.0,55.9,30.09,West,271,6.0,20.0,78,0.00,,,0.05,meteohub,2013-08-30 16:22:00,
2013-08-30 17:27:00,62.4,55.4,30.09,NW,304,13.0,20.0,78,0.00,,,0.05,meteohub,2013-08-30 16:27:00,
2013-08-30 17:32:00,62.8,55.0,30.10,WNW,286,10.0,24.0,76,0.00,,,0.05,meteohub,2013-08-30 16:32:00,
2013-08-30 17:37:00,63.0,55.2,30.10,WNW,283,9.0,24.0,76,0.00,,,0.05,meteohub,2013-08-30 16:37:00,
2013-08-30 17:42:00,63.3,54.9,30.10,NW,313,9.0,19.0,74,0.00,,,0.05,meteohub,2013-08-30 16:42:00,
2013-08-30 17:47:00,63.3,54.5,30.11,NW,311,8.0,19.0,73,0.00,,,0.05,meteohub,2013-08-30 16:47:00,
2013-08-30 17:52:00,63.1,53.6,30.11,NW,304,8.0,19.0,71,0.00,,,0.05,meteohub,2013-08-30 16:52:00,
2013-08-30 17:57:00,63.0,52.7,30.11,NW,311,11.0,16.0,69,0.00,,,0.05,meteohub,2013-08-30 16:57:00,
2013-08-30 18:02:00,63.0,51.8,30.12,West,267,10.0,19.0,67,0.00,,,0.05,meteohub,2013-08-30 17:02:00,
2013-08-30 18:07:00,62.8,52.5,30.12,WNW,284,5.0,19.0,69,0.00,,,0.05,meteohub,2013-08-30 17:07:00,
2013-08-30 18:12:00,62.8,52.9,30.12,WNW,292,8.0,19.0,70,0.00,,,0.05,meteohub,2013-08-30 17:12:00,
2013-08-30 18:17:00,63.0,52.7,30.12,WNW,290,8.0,16.0,69,0.00,,,0.05,meteohub,2013-08-30 17:17:00,
2013-08-30 18:22:00,62.4,51.8,30.12,NNW,334,8.0,19.0,68,0.00,,,0.05,meteohub,2013-08-30 17:22:00,
2013-08-30 18:27:00,62.6,52.0,30.12,NW,317,15.0,19.0,68,0.00,,,0.05,meteohub,2013-08-30 17:27:00,
2013-08-30 18:32:00,62.4,50.5,30.13,NNW,345,8.0,19.0,65,0.00,,,0.05,meteohub,2013-08-30 17:32:00,
2013-08-30 18:37:00,61.9,50.0,30.13,WNW,288,11.0,18.0,65,0.00,,,0.05,meteohub,2013-08-30 17:37:00,
2013-08-30 18:42:00,61.9,50.4,30.14,NW,307,4.0,18.0,66,0.00,,,0.05,meteohub,2013-08-30 17:42:00,
2013-08-30 18:47:00,61.9,50.0,30.14,NW,317,11.0,18.0,65,0.00,,,0.05,meteohub,2013-08-30 17:47:00,
2013-08-30 18:52:00,61.9,50.4,30.14,WNW,300,5.0,14.0,66,0.00,,,0.05,meteohub,2013-08-30 17:52:00,
2013-08-30 18:57:00,61.7,50.7,30.15,NNW,334,9.0,14.0,67,0.00,,,0.05,meteohub,2013-08-30 17:57:00,
2013-08-30 19:02:00,61.0,50.4,30.15,North,355,5.0,14.0,68,0.00,,,0.05,meteohub,2013-08-30 18:02:00,
2013-08-30 19:07:00,60.6,50.4,30.15,NNW,331,5.0,14.0,69,0.00,,,0.05,meteohub,2013-08-30 18:07:00,
2013-08-30 19:12:00,60.3,50.0,30.16,North,355,10.0,16.0,69,0.00,,,0.05,meteohub,2013-08-30 18:12:00,
2013-08-30 19:17:00,60.3,49.6,30.16,NW,323,9.0,16.0,68,0.00,,,0.05,meteohub,2013-08-30 18:17:00,
2013-08-30 19:22:00,60.3,49.6,30.16,NW,321,5.0,16.0,68,0.00,,,0.05,meteohub,2013-08-30 18:22:00,
2013-08-30 19:27:00,60.1,49.8,30.17,NW,323,8.0,15.0,69,0.00,,,0.05,meteohub,2013-08-30 18:27:00,
2013-08-30 19:32:00,59.9,49.6,30.17,NNW,333,8.0,15.0,69,0.00,,,0.05,meteohub,2013-08-30 18:32:00,
2013-08-30 19:37:00,59.5,48.6,30.17,NNW,330,5.0,14.0,67,0.00,,,0.05,meteohub,2013-08-30 18:37:00,
2013-08-30 19:42:00,59.4,48.7,30.17,West,275,2.0,15.0,68,0.00,,,0.05,meteohub,2013-08-30 18:42:00,
2013-08-30 19:47:00,58.8,48.2,30.17,WNW,282,6.0,15.0,68,0.00,,,0.05,meteohub,2013-08-30 18:47:00,
2013-08-30 19:52:00,58.6,48.2,30.17,WNW,292,11.0,11.0,68,0.00,,,0.05,meteohub,2013-08-30 18:52:00,
2013-08-30 19:57:00,58.3,48.2,30.18,WNW,300,6.0,15.0,69,0.00,,,0.05,meteohub,2013-08-30 18:57:00,
2013-08-30 20:02:00,57.9,47.8,30.19,WNW,293,5.0,15.0,69,0.00,,,0.05,meteohub,2013-08-30 19:02:00,
2013-08-30 20:07:00,57.7,47.7,30.19,WNW,294,2.0,15.0,69,0.00,,,0.05,meteohub,2013-08-30 19:07:00,
2013-08-30 20:12:00,57.7,48.0,30.19,WNW,288,4.0,11.0,70,0.00,,,0.05,meteohub,2013-08-30 19:12:00,
2013-08-30 20:17:00,57.7,48.0,30.19,WNW,292,4.0,11.0,70,0.00,,,0.05,meteohub,2013-08-30 19:17:00,
2013-08-30 20:22:00,57.4,47.7,30.19,West,271,5.0,11.0,70,0.00,,,0.05,meteohub,2013-08-30 19:22:00,
2013-08-30 20:27:00,57.0,47.3,30.19,NW,318,2.0,14.0,70,0.00,,,0.05,meteohub,2013-08-30 19:27:00,
2013-08-30 20:32:00,56.8,47.1,30.20,WNW,292,5.0,14.0,70,0.00,,,0.05,meteohub,2013-08-30 19:32:00,
2013-08-30 20:37:00,56.7,46.9,30.20,West,267,2.0,13.0,70,0.00,,,0.05,meteohub,2013-08-30 19:37:00,
2013-08-30 20:42:00,56.5,47.1,30.21,WNW,290,6.0,11.0,71,0.00,,,0.05,meteohub,2013-08-30 19:42:00,
2013-08-30 20:47:00,56.5,47.1,30.21,WNW,292,5.0,10.0,71,0.00,,,0.05,meteohub,2013-08-30 19:47:00,
2013-08-30 20:52:00,56.1,46.8,30.21,WNW,282,5.0,9.0,71,0.00,,,0.05,meteohub,2013-08-30 19:52:00,
2013-08-30 20:57:00,55.8,46.9,30.21,WNW,288,6.0,11.0,72,0.00,,,0.05,meteohub,2013-08-30 19:57:00,
2013-08-30 21:02:00,55.4,46.6,30.22,WNW,295,2.0,11.0,72,0.00,,,0.05,meteohub,2013-08-30 20:02:00,
2013-08-30 21:07:00,55.0,46.6,30.22,West,275,4.0,11.0,73,0.00,,,0.05,meteohub,2013-08-30 20:07:00,
2013-08-30 21:12:00,54.9,46.4,30.23,West,270,5.0,10.0,73,0.00,,,0.05,meteohub,2013-08-30 20:12:00,
2013-08-30 21:17:00,54.9,46.4,30.23,West,275,2.0,9.0,73,0.00,,,0.05,meteohub,2013-08-30 20:17:00,
2013-08-30 21:22:00,54.7,46.2,30.23,WNW,285,5.0,9.0,73,0.00,,,0.05,meteohub,2013-08-30 20:22:00,
2013-08-30 21:27:00,54.3,45.9,30.23,WNW,297,4.0,6.0,73,0.00,,,0.05,meteohub,2013-08-30 20:27:00,
2013-08-30 21:32:00,54.3,45.9,30.23,WNW,283,4.0,9.0,73,0.00,,,0.05,meteohub,2013-08-30 20:32:00,
2013-08-30 21:37:00,54.3,45.9,30.23,West,278,2.0,9.0,73,0.00,,,0.05,meteohub,2013-08-30 20:37:00,
2013-08-30 21:42:00,54.1,45.7,30.24,WNW,286,2.0,9.0,73,0.00,,,0.05,meteohub,2013-08-30 20:42:00,
2013-08-30 21:47:00,54.1,45.7,30.24,WNW,286,0.0,8.0,73,0.00,,,0.05,meteohub,2013-08-30 20:47:00,
2013-08-30 21:52:00,54.3,45.9,30.25,WNW,286,0.0,8.0,73,0.00,,,0.05,meteohub,2013-08-30 20:52:00,
2013-08-30 21:57:00,54.7,46.2,30.25,WNW,286,0.0,2.0,73,0.00,,,0.05,meteohub,2013-08-30 20:57:00,
2013-08-30 22:02:00,54.7,46.2,30.25,WNW,286,2.0,4.0,73,0.00,,,0.05,meteohub,2013-08-30 21:02:00,
2013-08-30 22:07:00,54.5,46.4,30.25,WNW,286,4.0,4.0,74,0.00,,,0.05,meteohub,2013-08-30 21:07:00,
2013-08-30 22:12:00,54.3,46.2,30.25,WNW,290,6.0,6.0,74,0.00,,,0.05,meteohub,2013-08-30 21:12:00,
2013-08-30 22:17:00,54.1,46.0,30.25,WNW,290,2.0,8.0,74,0.00,,,0.05,meteohub,2013-08-30 21:17:00,
2013-08-30 22:22:00,54.1,46.0,30.25,WNW,290,0.0,8.0,74,0.00,,,0.05,meteohub,2013-08-30 21:22:00,
2013-08-30 22:27:00,54.3,46.2,30.25,WNW,290,0.0,8.0,74,0.00,,,0.05,meteohub,2013-08-30 21:27:00,
2013-08-30 22:32:00,54.7,46.6,30.25,WNW,290,0.0,5.0,74,0.00,,,0.05,meteohub,2013-08-30 21:32:00,
2013-08-30 22:37:00,54.5,46.4,30.25,WNW,286,1.0,4.0,74,0.00,,,0.05,meteohub,2013-08-30 21:37:00,
2013-08-30 22:42:00,54.7,46.6,30.26,WNW,286,2.0,5.0,74,0.00,,,0.05,meteohub,2013-08-30 21:42:00,
2013-08-30 22:47:00,54.9,46.8,30.26,West,279,2.0,6.0,74,0.00,,,0.05,meteohub,2013-08-30 21:47:00,
2013-08-30 22:52:00,54.9,46.4,30.26,West,279,0.0,6.0,73,0.00,,,0.05,meteohub,2013-08-30 21:52:00,
2013-08-30 22:57:00,55.2,46.8,30.26,West,279,0.0,6.0,73,0.00,,,0.05,meteohub,2013-08-30 21:57:00,
2013-08-30 23:02:00,55.2,46.8,30.26,West,279,0.0,4.0,73,0.00,,,0.05,meteohub,2013-08-30 22:02:00,
2013-08-30 23:07:00,55.4,46.6,30.26,West,279,1.0,4.0,72,0.00,,,0.05,meteohub,2013-08-30 22:07:00,
2013-08-30 23:12:00,55.4,46.6,30.26,West,274,2.0,6.0,72,0.00,,,0.05,meteohub,2013-08-30 22:12:00,
2013-08-30 23:17:00,55.4,46.6,30.27,WNW,291,5.0,8.0,72,0.00,,,0.05,meteohub,2013-08-30 22:17:00,
2013-08-30 23:22:00,55.2,46.4,30.27,WNW,289,2.0,8.0,72,0.00,,,0.05,meteohub,2013-08-30 22:22:00,
2013-08-30 23:27:00,55.0,46.6,30.27,WNW,286,2.0,8.0,73,0.00,,,0.05,meteohub,2013-08-30 22:27:00,
2013-08-30 23:32:00,55.0,46.6,30.27,WNW,285,2.0,8.0,73,0.00,,,0.05,meteohub,2013-08-30 22:32:00,
2013-08-30 23:37:00,54.9,46.4,30.27,WNW,285,2.0,8.0,73,0.00,,,0.05,meteohub,2013-08-30 22:37:00,
2013-08-30 23:42:00,54.9,46.4,30.27,WNW,285,1.0,5.0,73,0.00,,,0.05,meteohub,2013-08-30 22:42:00,
2013-08-30 23:47:00,55.0,46.6,30.27,WNW,285,0.0,5.0,73,0.00,,,0.05,meteohub,2013-08-30 22:47:00,
2013-08-30 23:52:00,55.4,46.9,30.27,WNW,285,0.0,4.0,73,0.00,,,0.05,meteohub,2013-08-30 22:52:00,
2013-08-30 23:57:00,55.6,46.8,30.27,WNW,285,0.0,4.0,72,0.00,,,0.05,meteohub,2013-08-30 22:57:00,